Terminal Aerodrome Forecast
Issued by NWS

Home | Current Version | Previous Version | Graphics & Text | Print | Product List | Glossary On
Versions: 1 2 3 4 5 6 7 8 9 10 11 12 13 14 15 16 17 18 19
000
FTUS43 KUNR 251100
TAFGCC
TAF
KGCC 251120Z 2512/2612 22015KT P6SM BKN080
     FM251500 29018G28KT 2SM -SN BKN008
     FM252200 32015KT P6SM BKN025=

USA.gov is the U.S. government's official web portal to all federal, state and local government web resources and services.